Time;durP1;ratioP1;P1;durP2;ratioP2;P2;SDS_P1;SDS_P2;PMS_P1;PMS_P2;Temp;Humidity;BMP_temperature;BMP_pressure;BME280_temperature;BME280_humidity;BME280_pressure;Samples;Min_cycle;Max_cycle;Signal;HPM_P1;HPM_P2
2021/11/05 00:01:43;;;;;;;138.63;57.80;;;;;;;;;;5094401;28;20558;-65
2021/11/05 00:04:09;;;;;;;142.32;57.55;;;;;;;;;;5094358;28;20115;-65
2021/11/05 00:06:35;;;;;;;128.65;56.53;;;;;;;;;;5094319;28;20016;-65
2021/11/05 00:09:01;;;;;;;136.88;57.65;;;;;;;;;;5094280;28;20032;-65
2021/11/05 00:11:27;;;;;;;139.38;59.70;;;;;;;;;;5094230;28;20024;-65
2021/11/05 00:13:53;;;;;;;149.05;59.78;;;;;;;;;;5094186;28;20114;-65
2021/11/05 00:16:19;;;;;;;141.52;58.33;;;;;;;;;;5092977;28;20463;-65
2021/11/05 00:18:45;;;;;;;139.00;57.83;;;;;;;;;;5094054;28;20042;-65
2021/11/05 00:21:11;;;;;;;137.30;57.72;;;;;;;;;;5094059;28;20055;-65
2021/11/05 00:23:37;;;;;;;135.38;58.50;;;;;;;;;;5094047;28;20024;-65
2021/11/05 00:26:03;;;;;;;131.30;56.97;;;;;;;;;;5094019;28;20035;-65
2021/11/05 00:28:29;;;;;;;136.48;58.88;;;;;;;;;;5092725;28;20412;-65
2021/11/05 00:30:56;;;;;;;134.02;57.15;;;;;;;;;;5093989;28;20038;-66
2021/11/05 00:33:22;;;;;;;135.02;56.30;;;;;;;;;;5093914;28;20021;-65
2021/11/05 00:35:48;;;;;;;136.60;56.03;;;;;;;;;;5093907;28;20508;-66
2021/11/05 00:38:15;;;;;;;123.03;54.00;;;;;;;;;;5093547;28;20040;-65
2021/11/05 00:40:41;;;;;;;121.30;54.55;;;;;;;;;;5092659;28;20494;-65
2021/11/05 00:43:07;;;;;;;119.93;52.15;;;;;;;;;;5093835;28;20024;-65
2021/11/05 00:45:33;;;;;;;118.45;53.20;;;;;;;;;;5092296;28;20062;-66
2021/11/05 00:47:59;;;;;;;121.45;54.58;;;;;;;;;;5093824;28;20441;-65
2021/11/05 00:50:25;;;;;;;116.95;51.75;;;;;;;;;;5093795;28;20031;-65
2021/11/05 00:52:51;;;;;;;123.53;52.20;;;;;;;;;;5093785;28;20024;-65
2021/11/05 00:55:17;;;;;;;123.57;53.50;;;;;;;;;;5093727;28;20461;-65
2021/11/05 00:57:43;;;;;;;121.18;51.63;;;;;;;;;;5093581;28;20036;-65
2021/11/05 01:00:12;;;;;;;117.82;51.67;;;;;;;;;;5095509;28;20020;-65
2021/11/05 01:02:38;;;;;;;122.10;52.50;;;;;;;;;;5097780;28;20027;-65
2021/11/05 01:05:04;;;;;;;114.35;51.83;;;;;;;;;;5097771;28;20051;-66
2021/11/05 01:07:30;;;;;;;119.38;50.58;;;;;;;;;;5096504;28;20020;-66
2021/11/05 01:09:56;;;;;;;117.22;50.97;;;;;;;;;;5097662;28;20035;-65
2021/11/05 01:12:22;;;;;;;114.50;49.85;;;;;;;;;;5097610;28;20028;-65
2021/11/05 01:14:48;;;;;;;121.40;52.13;;;;;;;;;;5096367;28;20338;-64
2021/11/05 01:17:14;;;;;;;115.60;50.53;;;;;;;;;;5097520;28;20032;-65
2021/11/05 01:19:40;;;;;;;125.85;50.63;;;;;;;;;;5097391;28;20461;-65
2021/11/05 01:22:07;;;;;;;116.40;50.80;;;;;;;;;;5097422;28;20016;-65
2021/11/05 01:24:33;;;;;;;114.80;49.65;;;;;;;;;;5097659;28;20028;-64
2021/11/05 01:26:59;;;;;;;115.95;49.40;;;;;;;;;;5097598;28;20496;-66
2021/11/05 01:29:25;;;;;;;110.45;49.50;;;;;;;;;;5097286;28;20028;-68
2021/11/05 01:31:52;;;;;;;110.05;47.53;;;;;;;;;;5096066;28;20528;-64
2021/11/05 01:34:18;;;;;;;116.25;49.92;;;;;;;;;;5097198;28;20024;-66
2021/11/05 01:36:44;;;;;;;117.50;50.25;;;;;;;;;;5097159;28;20035;-66
2021/11/05 01:39:10;;;;;;;125.20;50.60;;;;;;;;;;5096494;28;20052;-66
2021/11/05 01:41:40;;;;;;;112.35;47.35;;;;;;;;;;5095774;28;20373;-66
2021/11/05 01:44:06;;;;;;;110.00;47.72;;;;;;;;;;5096987;28;20020;-66
2021/11/05 01:46:32;;;;;;;112.55;48.30;;;;;;;;;;5095765;28;20479;-66
2021/11/05 01:48:58;;;;;;;112.97;49.95;;;;;;;;;;5096908;28;20146;-66
2021/11/05 01:51:24;;;;;;;120.55;49.47;;;;;;;;;;5096886;28;20028;-66
2021/11/05 01:53:50;;;;;;;113.10;46.95;;;;;;;;;;5095655;28;20031;-65
2021/11/05 01:56:17;;;;;;;113.28;47.55;;;;;;;;;;5096788;28;20450;-65
2021/11/05 01:58:42;;;;;;;115.38;50.83;;;;;;;;;;5095746;28;20027;-64
2021/11/05 02:01:09;;;;;;;118.75;49.95;;;;;;;;;;5096687;28;20377;-65
2021/11/05 02:03:35;;;;;;;109.68;48.60;;;;;;;;;;5096634;28;20020;-64
2021/11/05 02:06:01;;;;;;;108.82;45.35;;;;;;;;;;5096605;28;20063;-65
2021/11/05 02:08:28;;;;;;;110.22;46.63;;;;;;;;;;5096543;28;20035;-65
2021/11/05 02:10:55;;;;;;;105.63;46.03;;;;;;;;;;5096004;28;20024;-65
2021/11/05 02:13:22;;;;;;;106.68;44.20;;;;;;;;;;5096445;28;20020;-65
2021/11/05 02:15:49;;;;;;;115.93;48.08;;;;;;;;;;5096403;28;20032;-66
2021/11/05 02:18:16;;;;;;;112.43;46.78;;;;;;;;;;5096566;28;20032;-64
2021/11/05 02:20:42;;;;;;;115.45;46.47;;;;;;;;;;5094750;28;20016;-65
2021/11/05 02:23:08;;;;;;;104.88;45.10;;;;;;;;;;5096260;28;20032;-65
2021/11/05 02:25:34;;;;;;;99.32;42.70;;;;;;;;;;5096217;28;20029;-65
2021/11/05 02:28:00;;;;;;;92.13;40.53;;;;;;;;;;5094967;28;20024;-64
2021/11/05 02:30:26;;;;;;;98.60;41.67;;;;;;;;;;5096121;28;20477;-64
2021/11/05 02:32:53;;;;;;;96.18;42.50;;;;;;;;;;5096031;28;20378;-65
2021/11/05 02:35:19;;;;;;;100.13;40.67;;;;;;;;;;5096017;28;20484;-65
2021/11/05 02:37:46;;;;;;;102.20;43.90;;;;;;;;;;5095684;28;20068;-65
2021/11/05 02:40:13;;;;;;;86.53;40.15;;;;;;;;;;5095917;28;20020;-64
2021/11/05 02:42:39;;;;;;;91.57;40.45;;;;;;;;;;5095884;28;20024;-64
2021/11/05 02:45:05;;;;;;;98.82;41.50;;;;;;;;;;5095817;28;20412;-65
2021/11/05 02:47:31;;;;;;;100.30;43.60;;;;;;;;;;5095798;28;20023;-65
2021/11/05 02:49:59;;;;;;;104.47;45.78;;;;;;;;;;5095752;28;20016;-65
2021/11/05 02:52:25;;;;;;;118.97;48.17;;;;;;;;;;5095725;28;20031;-64
2021/11/05 02:54:51;;;;;;;110.93;47.78;;;;;;;;;;5095626;28;20466;-66
2021/11/05 02:57:17;;;;;;;119.85;48.35;;;;;;;;;;5095582;28;20103;-64
2021/11/05 02:59:43;;;;;;;112.28;45.92;;;;;;;;;;5095449;28;20077;-64
2021/11/05 03:02:09;;;;;;;111.80;47.63;;;;;;;;;;5094504;28;20524;-64
2021/11/05 03:04:37;;;;;;;111.75;46.72;;;;;;;;;;5093867;28;20366;-65
2021/11/05 03:07:05;;;;;;;116.75;47.65;;;;;;;;;;5095394;28;20063;-65
2021/11/05 03:09:34;;;;;;;121.15;46.85;;;;;;;;;;5095600;28;20363;-65
2021/11/05 03:12:00;;;;;;;119.38;48.72;;;;;;;;;;5095309;28;20107;-64
2021/11/05 03:14:26;;;;;;;119.28;46.67;;;;;;;;;;5095533;28;20402;-64
2021/11/05 03:16:53;;;;;;;123.38;48.20;;;;;;;;;;5095193;28;20481;-65
2021/11/05 03:19:19;;;;;;;121.20;47.05;;;;;;;;;;5094383;28;20024;-64
2021/11/05 03:21:45;;;;;;;124.25;48.97;;;;;;;;;;5094657;28;20035;-65
2021/11/05 03:24:11;;;;;;;118.57;46.15;;;;;;;;;;5094689;28;20044;-65
2021/11/05 03:26:37;;;;;;;121.82;45.25;;;;;;;;;;5095301;28;20028;-65
2021/11/05 03:29:03;;;;;;;119.95;46.83;;;;;;;;;;5094959;28;20024;-64
2021/11/05 03:31:29;;;;;;;115.78;46.22;;;;;;;;;;5094925;28;20032;-64
2021/11/05 03:33:56;;;;;;;124.45;46.15;;;;;;;;;;5095176;28;20032;-65
2021/11/05 03:36:22;;;;;;;112.45;44.28;;;;;;;;;;5094837;28;20057;-65
2021/11/05 03:38:49;;;;;;;112.43;43.40;;;;;;;;;;5093254;28;20081;-64
2021/11/05 03:41:14;;;;;;;107.35;42.53;;;;;;;;;;5094764;28;20416;-64
2021/11/05 03:43:40;;;;;;;98.60;38.75;;;;;;;;;;5094701;28;20020;-65
2021/11/05 03:46:07;;;;;;;107.82;43.47;;;;;;;;;;5094685;28;20024;-65
2021/11/05 03:48:36;;;;;;;103.72;41.45;;;;;;;;;;5094624;28;20054;-65
2021/11/05 03:51:02;;;;;;;110.40;42.42;;;;;;;;;;5093060;28;20051;-64
2021/11/05 03:53:29;;;;;;;116.57;43.22;;;;;;;;;;5094556;28;20418;-65
2021/11/05 03:55:55;;;;;;;115.32;45.08;;;;;;;;;;5094521;28;20028;-65
2021/11/05 03:58:21;;;;;;;120.85;45.92;;;;;;;;;;5093210;28;20457;-66
2021/11/05 04:00:47;;;;;;;117.30;44.92;;;;;;;;;;5092879;28;20024;-65
2021/11/05 04:03:13;;;;;;;111.97;44.47;;;;;;;;;;5094387;28;20103;-64
2021/11/05 04:05:39;;;;;;;110.57;43.22;;;;;;;;;;5094345;28;20055;-65
2021/11/05 04:08:05;;;;;;;113.55;43.03;;;;;;;;;;5094289;28;20377;-65
2021/11/05 04:10:31;;;;;;;114.68;42.75;;;;;;;;;;5094256;28;20038;-65
2021/11/05 04:12:58;;;;;;;115.25;43.30;;;;;;;;;;5093056;28;20119;-65
2021/11/05 04:15:24;;;;;;;108.03;40.88;;;;;;;;;;5094183;28;20020;-64
2021/11/05 04:17:50;;;;;;;108.57;41.78;;;;;;;;;;5092563;28;20504;-64
2021/11/05 04:20:16;;;;;;;111.47;42.10;;;;;;;;;;5094143;28;20052;-64
2021/11/05 04:22:42;;;;;;;104.07;39.40;;;;;;;;;;5093794;28;20051;-65
2021/11/05 04:25:08;;;;;;;106.97;41.63;;;;;;;;;;5094338;28;20035;-65
2021/11/05 04:27:34;;;;;;;103.03;40.67;;;;;;;;;;5094019;28;20069;-64
2021/11/05 04:30:00;;;;;;;103.07;40.08;;;;;;;;;;5092831;28;20028;-65
2021/11/05 04:32:26;;;;;;;108.43;40.60;;;;;;;;;;5093966;28;20388;-64
2021/11/05 04:34:52;;;;;;;99.00;37.92;;;;;;;;;;5092530;28;20032;-64
2021/11/05 04:37:18;;;;;;;105.47;39.45;;;;;;;;;;5093596;28;20034;-64
2021/11/05 04:39:44;;;;;;;98.85;40.17;;;;;;;;;;5093734;28;20024;-64
2021/11/05 04:42:10;;;;;;;102.78;39.70;;;;;;;;;;5093811;28;20024;-64
2021/11/05 04:44:36;;;;;;;105.97;40.83;;;;;;;;;;5093876;28;20377;-64
2021/11/05 04:47:02;;;;;;;98.22;39.03;;;;;;;;;;5093823;28;20432;-64
2021/11/05 04:49:28;;;;;;;103.53;39.15;;;;;;;;;;5093801;28;20056;-65
2021/11/05 04:51:54;;;;;;;95.50;37.33;;;;;;;;;;5093787;28;20418;-65
2021/11/05 04:54:20;;;;;;;92.38;34.83;;;;;;;;;;5093692;28;20103;-64
2021/11/05 04:56:47;;;;;;;91.93;34.72;;;;;;;;;;5092165;28;20063;-65
2021/11/05 04:59:13;;;;;;;89.90;33.70;;;;;;;;;;5093352;28;20024;-64
2021/11/05 05:01:39;;;;;;;79.05;31.95;;;;;;;;;;5093668;28;20070;-65
2021/11/05 05:04:05;;;;;;;96.70;35.15;;;;;;;;;;5093664;28;20405;-65
2021/11/05 05:06:31;;;;;;;86.13;33.97;;;;;;;;;;5093641;28;20032;-65
2021/11/05 05:08:57;;;;;;;93.57;35.47;;;;;;;;;;5093655;28;20028;-64
2021/11/05 05:11:23;;;;;;;98.28;36.83;;;;;;;;;;5093596;28;20032;-64
2021/11/05 05:13:49;;;;;;;91.97;34.38;;;;;;;;;;5093594;28;20059;-64
2021/11/05 05:16:15;;;;;;;86.07;33.13;;;;;;;;;;5075266;28;20024;-64
2021/11/05 05:18:41;;;;;;;89.53;33.58;;;;;;;;;;5093446;28;20028;-65
2021/11/05 05:21:07;;;;;;;92.10;31.98;;;;;;;;;;5093495;28;20016;-64
2021/11/05 05:23:33;;;;;;;85.05;31.92;;;;;;;;;;5093487;28;20024;-64
2021/11/05 05:25:59;;;;;;;81.95;31.40;;;;;;;;;;5093471;28;20409;-65
2021/11/05 05:28:25;;;;;;;80.22;30.88;;;;;;;;;;5093723;28;20035;-65
2021/11/05 05:30:53;;;;;;;83.28;30.55;;;;;;;;;;5092216;28;20028;-65
2021/11/05 05:33:19;;;;;;;92.97;35.88;;;;;;;;;;5093408;28;20036;-64
2021/11/05 05:35:45;;;;;;;96.60;34.67;;;;;;;;;;5093426;28;20514;-64
2021/11/05 05:38:11;;;;;;;93.47;33.75;;;;;;;;;;5091753;28;20051;-65
2021/11/05 05:40:37;;;;;;;89.95;34.70;;;;;;;;;;5093344;28;20028;-65
2021/11/05 05:43:03;;;;;;;103.68;37.75;;;;;;;;;;5093300;28;20028;-64
2021/11/05 05:45:29;;;;;;;111.25;39.38;;;;;;;;;;5093896;28;20031;-65
2021/11/05 05:47:55;;;;;;;106.18;38.38;;;;;;;;;;5096981;28;20027;-65
2021/11/05 05:50:21;;;;;;;96.57;35.95;;;;;;;;;;5095336;28;20469;-66
2021/11/05 05:52:47;;;;;;;105.85;39.42;;;;;;;;;;5078500;28;20104;-64
2021/11/05 05:55:14;;;;;;;103.13;38.13;;;;;;;;;;5095650;28;20020;-65
2021/11/05 05:57:41;;;;;;;93.55;35.70;;;;;;;;;;5096642;28;20028;-64
2021/11/05 06:00:09;;;;;;;89.88;33.60;;;;;;;;;;5096721;28;20017;-64
2021/11/05 06:02:35;;;;;;;88.15;33.38;;;;;;;;;;5096677;28;20077;-64
2021/11/05 06:05:01;;;;;;;90.32;33.72;;;;;;;;;;5096635;28;20066;-64
2021/11/05 06:07:28;;;;;;;99.55;35.78;;;;;;;;;;5096618;28;20024;-64
2021/11/05 06:09:54;;;;;;;99.13;34.88;;;;;;;;;;5094949;28;20031;-64
2021/11/05 06:12:20;;;;;;;92.32;34.05;;;;;;;;;;5096224;28;20028;-64
2021/11/05 06:14:46;;;;;;;86.07;32.67;;;;;;;;;;5096480;28;20024;-65
2021/11/05 06:17:12;;;;;;;88.80;31.88;;;;;;;;;;5096376;28;20511;-65
2021/11/05 06:19:37;;;;;;;89.55;31.42;;;;;;;;;;5096258;28;20173;-64
2021/11/05 06:22:04;;;;;;;87.47;30.83;;;;;;;;;;5095325;28;20497;-64
2021/11/05 06:24:30;;;;;;;82.72;30.65;;;;;;;;;;5096263;28;20039;-64
2021/11/05 06:26:56;;;;;;;80.85;30.27;;;;;;;;;;5096233;28;20032;-65
2021/11/05 06:29:22;;;;;;;75.20;30.00;;;;;;;;;;5096136;28;20028;-65
2021/11/05 06:31:48;;;;;;;85.97;31.75;;;;;;;;;;5096374;28;20027;-65
2021/11/05 06:34:14;;;;;;;83.78;31.13;;;;;;;;;;5096048;28;20099;-65
2021/11/05 06:36:40;;;;;;;84.28;29.33;;;;;;;;;;5096010;28;20024;-65
2021/11/05 06:39:06;;;;;;;91.20;29.85;;;;;;;;;;5094289;28;20120;-64
2021/11/05 06:41:32;;;;;;;78.13;28.88;;;;;;;;;;5095910;28;20042;-64
2021/11/05 06:43:59;;;;;;;79.53;28.58;;;;;;;;;;5094323;28;20028;-64
2021/11/05 06:46:25;;;;;;;84.75;29.65;;;;;;;;;;5094252;28;20043;-65
2021/11/05 06:48:51;;;;;;;90.97;32.95;;;;;;;;;;5096011;28;20070;-65
2021/11/05 06:51:17;;;;;;;87.95;32.58;;;;;;;;;;5095664;28;20032;-65
2021/11/05 06:53:43;;;;;;;92.10;33.97;;;;;;;;;;5095680;28;20043;-65
2021/11/05 06:56:09;;;;;;;85.57;33.78;;;;;;;;;;5095851;28;20466;-65
2021/11/05 06:58:36;;;;;;;105.20;37.42;;;;;;;;;;5077154;28;20035;-65
2021/11/05 07:01:03;;;;;;;103.35;35.42;;;;;;;;;;5093910;28;20027;-65
2021/11/05 07:03:29;;;;;;;104.25;37.30;;;;;;;;;;5095398;28;20405;-65
2021/11/05 07:05:56;;;;;;;104.43;36.72;;;;;;;;;;5095397;28;20026;-65
2021/11/05 07:08:22;;;;;;;103.40;36.13;;;;;;;;;;5095310;28;20027;-65
2021/11/05 07:10:48;;;;;;;103.85;37.35;;;;;;;;;;5094546;28;20454;-65
2021/11/05 07:13:14;;;;;;;106.40;37.30;;;;;;;;;;5095236;28;20035;-66
2021/11/05 07:15:40;;;;;;;99.97;36.67;;;;;;;;;;5095219;28;20396;-66
2021/11/05 07:18:06;;;;;;;101.88;35.83;;;;;;;;;;5095152;28;20028;-65
2021/11/05 07:20:35;;;;;;;98.68;35.33;;;;;;;;;;5094362;28;20469;-65
2021/11/05 07:23:01;;;;;;;102.30;35.95;;;;;;;;;;5095083;28;20016;-65
2021/11/05 07:25:27;;;;;;;99.80;36.28;;;;;;;;;;5095051;28;20077;-64
2021/11/05 07:27:53;;;;;;;95.47;35.45;;;;;;;;;;5095026;28;20016;-65
2021/11/05 07:30:19;;;;;;;101.60;36.22;;;;;;;;;;5094981;28;20103;-65
2021/11/05 07:32:46;;;;;;;88.15;32.80;;;;;;;;;;5094868;28;20077;-64
2021/11/05 07:35:14;;;;;;;88.40;33.38;;;;;;;;;;5094832;28;20043;-67
2021/11/05 07:37:40;;;;;;;95.00;33.70;;;;;;;;;;5094589;28;20043;-65
2021/11/05 07:40:08;;;;;;;101.38;36.70;;;;;;;;;;5093962;28;20028;-65
2021/11/05 07:42:34;;;;;;;90.22;33.33;;;;;;;;;;5104511;28;20020;-65
2021/11/05 07:45:00;;;;;;;85.05;32.03;;;;;;;;;;5103138;28;20031;-66
2021/11/05 07:47:26;;;;;;;84.07;32.53;;;;;;;;;;5094504;28;20024;-66
2021/11/05 07:49:52;;;;;;;85.43;31.73;;;;;;;;;;5093830;28;20095;-65
2021/11/05 07:52:19;;;;;;;80.72;29.50;;;;;;;;;;5094257;28;20024;-63
2021/11/05 07:54:46;;;;;;;83.03;29.45;;;;;;;;;;5094198;28;20027;-64
2021/11/05 07:57:12;;;;;;;74.57;29.63;;;;;;;;;;5094364;28;20034;-64
2021/11/05 07:59:38;;;;;;;72.63;28.77;;;;;;;;;;5094285;28;20024;-65
2021/11/05 08:02:04;;;;;;;76.93;29.92;;;;;;;;;;5093935;28;20028;-65
2021/11/05 08:04:30;;;;;;;75.65;29.10;;;;;;;;;;5093863;28;20035;-66
2021/11/05 08:06:56;;;;;;;82.88;31.13;;;;;;;;;;5094301;28;20020;-65
2021/11/05 08:09:22;;;;;;;85.18;30.50;;;;;;;;;;5093354;28;20024;-65
2021/11/05 08:11:48;;;;;;;80.95;30.77;;;;;;;;;;5092576;28;20037;-65
2021/11/05 08:14:14;;;;;;;78.90;30.50;;;;;;;;;;5093530;28;20028;-66
2021/11/05 08:16:40;;;;;;;78.18;30.05;;;;;;;;;;5093374;28;20090;-66
2021/11/05 08:19:06;;;;;;;72.25;29.88;;;;;;;;;;5092172;28;20107;-66
2021/11/05 08:21:32;;;;;;;67.82;27.58;;;;;;;;;;5092440;28;20023;-64
2021/11/05 08:23:58;;;;;;;65.88;27.98;;;;;;;;;;5093372;28;20377;-66
2021/11/05 08:26:26;;;;;;;62.78;25.63;;;;;;;;;;5092153;28;20446;-64
2021/11/05 08:28:52;;;;;;;72.72;27.25;;;;;;;;;;5092229;28;20034;-64
2021/11/05 08:31:18;;;;;;;65.80;26.50;;;;;;;;;;5090938;28;20024;-66
2021/11/05 08:33:45;;;;;;;70.60;26.10;;;;;;;;;;5089971;28;20477;-66
2021/11/05 08:36:12;;;;;;;62.13;26.02;;;;;;;;;;5092549;28;20028;-64
2021/11/05 08:38:38;;;;;;;76.53;29.35;;;;;;;;;;5092841;28;20054;-66
2021/11/05 08:41:04;;;;;;;101.97;36.55;;;;;;;;;;5092959;28;20032;-65
2021/11/05 08:43:32;;;;;;;105.15;38.17;;;;;;;;;;5092820;28;20021;-66
2021/11/05 08:45:59;;;;;;;100.93;37.78;;;;;;;;;;5093125;28;20028;-66
2021/11/05 08:48:25;;;;;;;99.88;38.80;;;;;;;;;;5093681;28;20025;-66
2021/11/05 08:50:53;;;;;;;97.32;38.17;;;;;;;;;;5093149;28;20031;-67
2021/11/05 08:53:19;;;;;;;97.22;37.22;;;;;;;;;;5093587;28;20028;-66
2021/11/05 08:55:45;;;;;;;85.72;34.67;;;;;;;;;;5092969;28;20032;-66
2021/11/05 08:58:11;;;;;;;87.47;33.47;;;;;;;;;;5092585;28;20107;-66
2021/11/05 09:00:38;;;;;;;92.40;37.45;;;;;;;;;;5093059;28;20456;-66
2021/11/05 09:03:05;;;;;;;101.20;39.50;;;;;;;;;;5093331;28;20428;-64
2021/11/05 09:05:31;;;;;;;116.72;44.50;;;;;;;;;;5092906;28;20583;-63
2021/11/05 09:07:57;;;;;;;114.32;43.15;;;;;;;;;;5093416;28;20032;-67
2021/11/05 09:10:24;;;;;;;125.93;42.85;;;;;;;;;;5090716;28;20416;-67
2021/11/05 09:12:50;;;;;;;103.03;39.45;;;;;;;;;;5092786;28;20031;-66
2021/11/05 09:15:23;;;;;;;100.70;38.70;;;;;;;;;;5092464;28;20046;-65
2021/11/05 09:17:50;;;;;;;105.78;38.60;;;;;;;;;;5091762;28;20020;-65
2021/11/05 09:20:18;;;;;;;109.47;39.67;;;;;;;;;;5093106;28;20107;-65
2021/11/05 09:22:44;;;;;;;113.03;42.75;;;;;;;;;;5097306;28;20123;-66
2021/11/05 09:25:10;;;;;;;104.15;38.88;;;;;;;;;;5096675;28;20111;-66
2021/11/05 09:27:36;;;;;;;110.80;40.75;;;;;;;;;;5099873;28;20027;-66
2021/11/05 09:30:03;;;;;;;103.32;40.75;;;;;;;;;;5082599;28;20044;-69
2021/11/05 09:32:28;;;;;;;104.88;39.35;;;;;;;;;;5075902;28;20020;-69
2021/11/05 09:34:55;;;;;;;105.93;37.67;;;;;;;;;;5088190;28;20477;-69
2021/11/05 09:37:22;;;;;;;104.05;40.67;;;;;;;;;;5095561;28;20523;-69
2021/11/05 09:39:48;;;;;;;108.88;42.30;;;;;;;;;;5084206;28;20154;-69
2021/11/05 09:42:15;;;;;;;122.68;42.97;;;;;;;;;;5096975;28;20028;-69
2021/11/05 09:44:41;;;;;;;144.18;51.53;;;;;;;;;;5096668;28;20020;-67
2021/11/05 09:47:07;;;;;;;176.32;58.17;;;;;;;;;;5078550;28;20457;-69
2021/11/05 09:49:34;;;;;;;161.93;56.80;;;;;;;;;;5096736;28;20020;-69
2021/11/05 09:52:01;;;;;;;167.20;58.13;;;;;;;;;;5096742;28;20131;-69
2021/11/05 09:54:29;;;;;;;157.63;57.17;;;;;;;;;;5096756;28;20032;-68
2021/11/05 09:56:55;;;;;;;163.27;55.08;;;;;;;;;;5095194;28;20020;-68
2021/11/05 09:59:20;;;;;;;135.85;48.28;;;8.70;99.90;;;;;;5095090;28;20070;-69
2021/11/05 10:01:46;;;;;;;117.32;44.08;;;8.70;99.90;;;;;;5095395;28;20048;-68
2021/11/05 10:04:13;;;;;;;115.85;41.33;;;8.70;99.90;;;;;;5096742;28;20023;-69
2021/11/05 10:06:39;;;;;;;104.50;38.70;;;8.70;99.90;;;;;;5096166;28;20099;-69
2021/11/05 10:09:14;;;;;;;101.93;37.88;;;8.70;99.90;;;;;;5094743;28;20035;-69
2021/11/05 10:11:40;;;;;;;113.43;43.50;;;8.90;99.90;;;;;;5095880;28;20074;-69
2021/11/05 10:14:17;;;;;;;118.72;47.00;;;9.00;99.90;;;;;;5096265;28;20466;-69
2021/11/05 10:16:59;;;;;;;121.25;45.03;;;9.10;99.90;;;;;;5096536;28;20520;-69
2021/11/05 10:19:44;;;;;;;109.93;44.50;;;9.10;99.90;;;;;;5096128;28;20020;-69
2021/11/05 10:22:30;;;;;;;109.45;44.05;;;9.20;99.90;;;;;;5095751;28;20078;-68
2021/11/05 10:25:30;;;;;;;96.00;39.05;;;9.10;99.90;;;;;;5096064;28;20465;-69
2021/11/05 10:33:24;;;;;;;124.35;47.80;;;9.20;99.90;;;;;;5111721;27;20657;-69
2021/11/05 10:35:53;;;;;;;106.30;43.97;;;9.20;99.90;;;;;;5111786;28;20031;-69
2021/11/05 10:38:19;;;;;;;116.05;45.05;;;9.30;99.90;;;;;;5093675;28;20024;-69
2021/11/05 10:40:49;;;;;;;114.90;46.90;;;9.20;99.90;;;;;;5111285;28;20031;-69
2021/11/05 10:43:37;;;;;;;92.43;38.38;;;9.20;99.90;;;;;;5111305;28;20518;-69
2021/11/05 10:46:06;;;;;;;99.65;37.42;;;9.30;99.90;;;;;;5128211;28;20020;-69
2021/11/05 10:48:38;;;;;;;90.47;35.38;;;9.30;99.90;;;;;;5131956;28;20057;-69
2021/11/05 10:51:06;;;;;;;92.63;34.60;;;9.40;99.90;;;;;;5131873;28;20015;-69
2021/11/05 10:53:36;;;;;;;82.00;31.52;;;9.50;99.90;;;;;;5131635;28;20099;-69
2021/11/05 10:56:13;;;;;;;83.10;30.95;;;9.60;99.90;;;;;;5131842;28;20115;-69
2021/11/05 10:58:51;;;;;;;78.07;30.98;;;9.60;99.90;;;;;;5090940;28;20020;-69
2021/11/05 11:01:20;;;;;;;79.30;32.08;;;9.70;99.90;;;;;;5101651;28;20032;-69
2021/11/05 11:03:50;;;;;;;84.47;33.60;;;9.70;99.90;;;;;;5110335;28;20528;-69
2021/11/05 11:06:23;;;;;;;81.60;34.70;;;9.80;99.90;;;;;;5095544;28;20061;-69
2021/11/05 11:08:55;;;;;;;90.88;36.50;;;9.80;99.90;;;;;;5090765;28;20024;-69
2021/11/05 11:11:28;;;;;;;88.57;36.20;;;9.80;99.90;;;;;;5091377;28;20035;-69
2021/11/05 11:13:56;;;;;;;94.47;35.25;;;9.70;99.90;;;;;;5096351;28;20465;-69
2021/11/05 11:16:42;;;;;;;94.30;36.80;;;9.70;99.90;;;;;;5110853;28;20449;-69
2021/11/05 11:19:11;;;;;;;90.50;37.90;;;9.60;99.90;;;;;;5094292;28;20527;-69
2021/11/05 11:21:52;;;;;;;106.25;39.33;;;9.60;99.90;;;;;;5089753;28;20093;-69
2021/11/05 11:24:20;;;;;;;97.15;38.75;;;9.70;99.90;;;;;;5088972;28;20032;-69
2021/11/05 11:26:48;;;;;;;107.15;43.20;;;9.80;99.90;;;;;;5090668;28;20032;-69
2021/11/05 11:29:16;;;;;;;106.03;43.15;;;10.00;99.90;;;;;;5089899;28;20388;-69
2021/11/05 11:31:42;;;;;;;114.63;45.83;;;9.90;99.90;;;;;;5102773;28;20059;-69
2021/11/05 11:34:10;;;;;;;118.28;48.78;;;10.00;99.90;;;;;;5110357;28;20099;-69
2021/11/05 11:36:40;;;;;;;106.13;45.08;;;10.10;99.90;;;;;;5108494;28;20030;-69
2021/11/05 11:39:09;;;;;;;106.50;43.75;;;10.00;99.90;;;;;;5105614;28;20099;-69
2021/11/05 11:41:36;;;;;;;109.43;46.00;;;10.00;99.90;;;;;;5094549;28;20435;-68
2021/11/05 11:44:03;;;;;;;110.18;44.40;;;10.00;99.90;;;;;;5078301;28;20039;-69
2021/11/05 11:46:49;;;;;;;111.00;45.38;;;10.00;99.90;;;;;;5075992;28;20527;-69
2021/11/05 11:49:33;;;;;;;105.75;44.80;;;9.90;99.90;;;;;;5075962;28;20066;-69
2021/11/05 11:51:58;;;;;;;;;;;9.90;99.90;;;;;;5075121;28;20059;-69
2021/11/05 11:57:22;;;;;;;101.80;43.38;;;10.00;99.90;;;;;;5069701;28;20180;-69
2021/11/05 12:00:16;;;;;;;99.20;40.40;;;10.10;99.90;;;;;;5054397;28;20021;-69
2021/11/05 12:02:47;;;;;;;86.90;35.78;;;10.00;99.90;;;;;;5062640;28;20087;-69
2021/11/05 12:08:20;;;;;;;95.07;41.00;;;10.00;99.90;;;;;;5111827;27;20400;-69
2021/11/05 12:10:54;;;;;;;97.65;42.63;;;10.10;99.90;;;;;;5110324;28;20019;-69
2021/11/05 12:27:16;;;;;;;69.97;31.23;;;10.10;99.90;;;;;;5081704;27;1851019;-68
2021/11/05 12:37:51;;;;;;;78.68;32.85;;;10.10;99.90;;;;;;5091389;27;20448;-68
2021/11/05 12:40:39;;;;;;;78.75;34.83;;;10.30;99.90;;;;;;5090580;28;20421;-68
2021/11/05 12:43:26;;;;;;;79.05;33.97;;;10.30;99.90;;;;;;5090139;28;20028;-68
2021/11/05 12:45:55;;;;;;;76.75;33.92;;;10.30;99.90;;;;;;5090663;28;20138;-68
2021/11/05 12:51:21;;;;;;;67.85;31.27;;;10.40;99.90;;;;;;5111932;27;20401;-68
2021/11/05 12:54:08;;;;;;;76.88;32.10;;;10.50;99.90;;;;;;5111644;28;20052;-68
2021/11/05 12:56:35;;;;;;;76.72;31.60;;;10.50;99.90;;;;;;5111434;28;20019;-68
2021/11/05 12:59:07;;;;;;;72.72;30.80;;;10.50;99.90;;;;;;5111301;28;20026;-68
2021/11/05 13:01:33;;;;;;;75.47;32.33;;;10.60;99.90;;;;;;5111330;28;20373;-68
2021/11/05 13:04:03;;;;;;;72.45;33.05;;;10.50;99.90;;;;;;5111490;28;20020;-68
2021/11/05 13:06:38;;;;;;;80.18;31.98;;;10.50;99.90;;;;;;5097713;28;20020;-68
2021/11/05 13:09:19;;;;;;;77.75;32.97;;;10.50;99.90;;;;;;5099475;28;20519;-68
2021/11/05 13:11:54;;;;;;;75.30;33.35;;;10.40;99.90;;;;;;5110996;28;20023;-68
2021/11/05 13:14:33;;;;;;;77.40;34.65;;;10.50;99.90;;;;;;5109937;28;20065;-68
2021/11/05 13:17:00;;;;;;;75.82;32.55;;;10.50;99.90;;;;;;5111043;28;20373;-68
2021/11/05 13:19:25;;;;;;;73.68;33.38;;;10.50;99.90;;;;;;5111253;28;20031;-68
2021/11/05 13:22:00;;;;;;;72.35;31.27;;;10.60;99.90;;;;;;5109916;28;20024;-68
2021/11/05 13:24:26;;;;;;;68.38;30.13;;;10.60;99.90;;;;;;5110712;28;20020;-68
2021/11/05 13:26:51;;;;;;;70.93;30.95;;;10.60;99.90;;;;;;5109292;28;20469;-69
2021/11/05 13:29:26;;;;;;;68.82;31.25;;;10.60;99.90;;;;;;5108838;28;20035;-69
2021/11/05 13:31:54;;;;;;;72.20;30.95;;;10.60;99.90;;;;;;5110273;28;20016;-69
2021/11/05 13:34:20;;;;;;;74.03;33.55;;;10.50;99.90;;;;;;5107589;28;20020;-69
2021/11/05 13:36:45;;;;;;;74.40;33.00;;;10.40;99.90;;;;;;5108368;28;20465;-69
2021/11/05 13:39:14;;;;;;;73.75;33.17;;;10.40;99.90;;;;;;5108885;28;20393;-69
2021/11/05 13:41:40;;;;;;;75.40;32.17;;;10.50;99.90;;;;;;5096060;28;20040;-68
2021/11/05 13:44:05;;;;;;;74.65;33.28;;;10.50;99.90;;;;;;5110566;28;20457;-68
2021/11/05 13:46:33;;;;;;;76.53;32.95;;;10.50;99.90;;;;;;5110396;28;20469;-68
2021/11/05 13:49:03;;;;;;;75.60;31.92;;;10.50;99.90;;;;;;5109631;28;20098;-68
2021/11/05 13:51:35;;;;;;;72.10;33.40;;;10.50;99.90;;;;;;5108558;28;20027;-68
2021/11/05 13:54:05;;;;;;;79.13;31.67;;;10.50;99.90;;;;;;5107194;28;20466;-68
2021/11/05 13:59:16;;;;;;;69.30;32.13;;;10.60;99.90;;;;;;5112040;27;20294;-68
2021/11/05 14:01:46;;;;;;;63.47;30.73;;;10.70;99.90;;;;;;5126799;27;20427;-68
2021/11/05 14:04:15;;;;;;;70.18;32.08;;;10.70;99.90;;;;;;5090754;28;20059;-68
2021/11/05 14:06:43;;;;;;;62.30;30.63;;;10.80;99.90;;;;;;5091909;28;20040;-68
2021/11/05 14:09:09;;;;;;;70.03;31.83;;;10.70;99.90;;;;;;5093569;28;20024;-68
2021/11/05 14:11:45;;;;;;;69.57;30.70;;;10.70;99.90;;;;;;5111264;28;20054;-68
2021/11/05 14:14:32;;;;;;;65.82;30.42;;;10.60;99.90;;;;;;5111486;28;20019;-68
2021/11/05 14:17:02;;;;;;;69.05;32.33;;;10.60;99.90;;;;;;5090443;28;20020;-68
2021/11/05 14:19:31;;;;;;;74.40;32.67;;;10.60;99.90;;;;;;5091013;28;20024;-68
2021/11/05 14:21:59;;;;;;;68.13;30.73;;;10.60;99.90;;;;;;5090360;28;20029;-68